createdAt,value
2018-05-19T00:02:23.402Z,30.70
2018-05-19T00:04:50.794Z,21.17
2018-05-19T00:07:18.186Z,20.07
2018-05-19T00:09:45.579Z,21.80
2018-05-19T00:12:12.963Z,19.00
2018-05-19T00:14:40.350Z,21.13
2018-05-19T00:17:07.743Z,21.27
2018-05-19T00:19:35.136Z,18.77
2018-05-19T00:22:02.568Z,21.60
2018-05-19T00:24:30.129Z,23.03
2018-05-19T00:26:57.562Z,19.57
2018-05-19T00:29:24.964Z,19.60
2018-05-19T00:31:52.355Z,21.10
2018-05-19T00:34:19.739Z,19.93
2018-05-19T00:36:47.128Z,19.90
2018-05-19T00:39:14.514Z,20.30
2018-05-19T00:41:41.907Z,20.63
2018-05-19T00:44:09.286Z,21.33
2018-05-19T00:46:36.683Z,21.47
2018-05-19T00:49:04.071Z,20.80
2018-05-19T00:51:31.467Z,22.10
2018-05-19T00:53:58.850Z,21.03
2018-05-19T00:56:26.247Z,24.13
2018-05-19T00:58:53.635Z,20.03
2018-05-19T01:01:21.023Z,24.30
2018-05-19T01:03:48.414Z,20.53
2018-05-19T01:06:15.805Z,19.63
2018-05-19T01:08:43.239Z,20.60
2018-05-19T01:11:10.631Z,21.40
2018-05-19T01:13:38.023Z,20.83
2018-05-19T01:16:05.410Z,20.60
2018-05-19T01:18:32.802Z,21.60
2018-05-19T01:21:00.194Z,20.97
2018-05-19T01:23:27.586Z,26.30
2018-05-19T01:25:54.979Z,24.30
2018-05-19T01:28:22.370Z,20.60
2018-05-19T01:30:49.774Z,21.40
2018-05-19T01:33:17.159Z,20.77
2018-05-19T01:35:44.555Z,21.50
2018-05-19T01:38:11.943Z,21.13
2018-05-19T01:40:39.336Z,21.60
2018-05-19T01:43:06.987Z,21.23
2018-05-19T01:45:34.378Z,20.67
2018-05-19T01:48:01.763Z,21.47
2018-05-19T01:50:29.167Z,22.37
2018-05-19T01:52:56.551Z,21.87
2018-05-19T01:55:23.947Z,22.27
2018-05-19T01:57:51.331Z,23.13
2018-05-19T02:00:18.719Z,22.03
2018-05-19T02:02:46.115Z,23.20
2018-05-19T02:05:13.507Z,25.70
2018-05-19T02:07:40.900Z,26.43
2018-05-19T02:10:08.287Z,22.17
2018-05-19T02:12:35.679Z,22.83
2018-05-19T02:15:03.078Z,22.57
2018-05-19T02:17:30.467Z,22.07
2018-05-19T02:19:57.872Z,22.73
2018-05-19T02:22:25.255Z,21.73
2018-05-19T02:24:52.652Z,23.07
2018-05-19T02:27:20.045Z,24.33
2018-05-19T02:29:47.431Z,23.70
2018-05-19T02:32:14.823Z,22.67
2018-05-19T02:34:42.210Z,25.80
2018-05-19T02:37:09.602Z,22.17
2018-05-19T02:39:37.035Z,22.80
2018-05-19T02:42:04.422Z,22.93
2018-05-19T02:44:31.891Z,22.43
2018-05-19T02:46:59.295Z,23.33
2018-05-19T02:49:26.675Z,23.33
2018-05-19T02:51:54.063Z,22.60
2018-05-19T02:54:21.441Z,25.00
2018-05-19T02:56:48.902Z,23.67
2018-05-19T02:59:16.295Z,23.53
2018-05-19T03:01:43.696Z,24.67
2018-05-19T03:04:11.139Z,23.60
2018-05-19T03:06:38.526Z,24.23
2018-05-19T03:09:05.915Z,21.77
2018-05-19T03:11:33.309Z,26.90
2018-05-19T03:14:00.801Z,24.37
2018-05-19T03:16:28.194Z,24.07
2018-05-19T03:18:55.583Z,23.83
2018-05-19T03:21:22.963Z,23.93
2018-05-19T03:23:50.355Z,22.13
2018-05-19T03:26:17.734Z,24.30
2018-05-19T03:28:45.136Z,25.00
2018-05-19T03:31:12.503Z,25.17
2018-05-19T03:33:39.887Z,26.93
2018-05-19T03:36:07.319Z,24.37
2018-05-19T03:38:34.659Z,24.43
2018-05-19T03:41:02.045Z,23.63
2018-05-19T03:43:29.433Z,24.70
2018-05-19T03:45:56.816Z,23.17
2018-05-19T03:48:24.399Z,23.97
2018-05-19T03:50:51.734Z,25.77
2018-05-19T03:53:19.123Z,25.17
2018-05-19T03:55:46.719Z,25.77
2018-05-19T03:58:25.726Z,25.90
2018-05-19T04:01:04.823Z,25.73
2018-05-19T04:03:32.229Z,25.00
2018-05-19T04:05:59.612Z,25.43
2018-05-19T04:08:26.991Z,26.00
2018-05-19T04:10:54.378Z,25.97
2018-05-19T04:13:21.769Z,26.00
2018-05-19T04:15:49.151Z,24.70
2018-05-19T04:18:16.542Z,26.50
2018-05-19T04:20:43.939Z,25.33
2018-05-19T04:23:11.315Z,26.77
2018-05-19T04:25:38.702Z,27.43
2018-05-19T04:28:06.088Z,26.00
2018-05-19T04:30:33.467Z,25.87
2018-05-19T04:33:00.895Z,27.50
2018-05-19T04:35:28.283Z,28.13
2018-05-19T04:37:56.378Z,24.93
2018-05-19T04:40:23.738Z,26.10
2018-05-19T04:42:51.142Z,30.70
2018-05-19T04:45:18.527Z,23.63
2018-05-19T04:47:45.915Z,25.20
2018-05-19T04:50:13.306Z,27.60
2018-05-19T04:52:40.697Z,25.13
2018-05-19T04:55:08.075Z,31.43
2018-05-19T04:57:35.466Z,28.80
2018-05-19T05:00:02.858Z,24.30
2018-05-19T05:02:30.262Z,27.43
2018-05-19T05:04:57.647Z,25.50
2018-05-19T05:07:25.048Z,27.23
2018-05-19T05:09:52.435Z,26.17
2018-05-19T05:12:19.902Z,29.33
2018-05-19T05:14:47.294Z,27.80
2018-05-19T05:17:14.704Z,26.20
2018-05-19T05:19:43.378Z,27.90
2018-05-19T05:22:10.716Z,25.50
2018-05-19T05:24:38.115Z,26.00
2018-05-19T05:27:05.583Z,25.90
2018-05-19T05:29:32.894Z,26.10
2018-05-19T05:32:00.282Z,30.63
2018-05-19T05:34:27.695Z,30.30
2018-05-19T05:36:55.078Z,29.23
2018-05-19T05:39:22.466Z,31.60
2018-05-19T05:41:49.856Z,30.83
2018-05-19T05:44:17.242Z,26.50
2018-05-19T05:46:44.735Z,29.23
2018-05-19T05:49:12.131Z,26.40
2018-05-19T05:51:39.524Z,27.57
2018-05-19T05:54:06.919Z,31.37
2018-05-19T05:56:34.331Z,27.43
2018-05-19T05:59:01.720Z,31.70
2018-05-19T06:01:29.106Z,27.63
2018-05-19T06:03:56.498Z,33.47
2018-05-19T06:06:23.993Z,30.90
2018-05-19T06:08:51.271Z,29.00
2018-05-19T06:11:18.663Z,32.43
2018-05-19T06:13:46.055Z,29.60
2018-05-19T06:16:13.443Z,27.77
2018-05-19T06:18:40.903Z,28.03
2018-05-19T06:21:08.219Z,35.90
2018-05-19T06:23:35.607Z,29.07
2018-05-19T06:26:02.994Z,29.43
2018-05-19T06:28:30.378Z,33.00
2018-05-19T06:30:57.766Z,34.97
2018-05-19T06:33:25.164Z,33.67
2018-05-19T06:35:52.552Z,39.93
2018-05-19T06:38:19.944Z,32.43
2018-05-19T06:40:47.334Z,33.40
2018-05-19T06:43:14.727Z,33.80
2018-05-19T06:45:42.111Z,36.60
2018-05-19T06:48:09.549Z,38.60
2018-05-19T06:50:36.907Z,29.83
2018-05-19T06:53:04.290Z,39.63
2018-05-19T06:55:31.723Z,32.77
2018-05-19T06:57:59.125Z,29.17
2018-05-19T07:00:26.510Z,31.10
2018-05-19T07:02:53.900Z,34.10
2018-05-19T07:05:21.314Z,33.93
2018-05-19T07:07:48.704Z,34.00
2018-05-19T07:10:16.106Z,36.00
2018-05-19T07:12:43.495Z,36.03
2018-05-19T07:15:10.966Z,30.10
2018-05-19T07:17:38.321Z,31.00
2018-05-19T07:20:05.694Z,33.03
2018-05-19T07:22:33.082Z,30.07
2018-05-19T07:25:00.479Z,32.60
2018-05-19T07:27:27.890Z,36.20
2018-05-19T07:29:55.282Z,29.87
2018-05-19T07:32:22.663Z,33.40
2018-05-19T07:34:50.063Z,33.87
2018-05-19T07:37:17.447Z,33.57
2018-05-19T07:39:44.838Z,32.37
2018-05-19T07:42:12.242Z,32.60
2018-05-19T07:44:39.636Z,36.23
2018-05-19T07:47:07.031Z,31.27
2018-05-19T07:49:34.407Z,37.20
2018-05-19T07:52:01.799Z,30.17
2018-05-19T07:54:29.201Z,27.60
2018-05-19T07:56:56.594Z,35.33
2018-05-19T07:59:23.983Z,32.70
2018-05-19T08:01:51.374Z,34.97
2018-05-19T08:04:18.785Z,33.07
2018-05-19T08:06:46.154Z,31.27
2018-05-19T08:09:13.545Z,30.27
2018-05-19T08:11:40.933Z,33.03
2018-05-19T08:14:08.331Z,36.27
2018-05-19T08:16:35.771Z,37.70
2018-05-19T08:19:03.169Z,33.13
2018-05-19T08:21:30.552Z,31.23
2018-05-19T08:23:58.009Z,36.80
2018-05-19T08:26:25.395Z,35.80
2018-05-19T08:28:52.790Z,41.90
2018-05-19T08:31:20.181Z,39.50
2018-05-19T08:33:47.575Z,41.20
2018-05-19T08:36:14.978Z,45.33
2018-05-19T08:38:42.426Z,40.60
2018-05-19T08:41:09.874Z,41.70
2018-05-19T08:43:37.244Z,44.17
2018-05-19T08:46:04.635Z,45.00
2018-05-19T08:48:32.059Z,47.70
2018-05-19T08:50:59.486Z,49.87
2018-05-19T08:53:26.970Z,54.10
2018-05-19T08:55:54.352Z,46.70
2018-05-19T08:58:21.748Z,44.03
2018-05-19T09:00:49.178Z,49.30
2018-05-19T09:03:16.562Z,49.90
2018-05-19T09:05:43.987Z,48.13
2018-05-19T09:08:11.449Z,48.60
2018-05-19T09:10:38.905Z,49.87
2018-05-19T09:13:06.314Z,54.47
2018-05-19T09:15:33.746Z,51.53
2018-05-19T09:18:01.142Z,50.63
2018-05-19T09:20:28.633Z,58.67
2018-05-19T09:22:56.022Z,46.23
2018-05-19T09:25:23.504Z,43.97
2018-05-19T09:27:50.932Z,39.37
2018-05-19T09:30:18.527Z,43.20
2018-05-19T09:32:45.948Z,44.53
2018-05-19T09:35:13.335Z,43.10
2018-05-19T09:37:40.729Z,50.60
2018-05-19T09:40:08.179Z,43.07
2018-05-19T09:42:35.570Z,43.90
2018-05-19T09:45:02.968Z,51.47
2018-05-19T09:47:30.436Z,51.80
2018-05-19T09:49:57.813Z,57.60
2018-05-19T09:52:25.238Z,51.57
2018-05-19T09:54:52.622Z,55.33
2018-05-19T09:57:20.076Z,49.20
2018-05-19T09:59:47.464Z,46.47
2018-05-19T10:02:14.935Z,47.67
2018-05-19T10:04:42.334Z,50.63
2018-05-19T10:07:09.730Z,47.00
2018-05-19T10:09:37.120Z,49.90
2018-05-19T10:12:04.570Z,48.53
2018-05-19T10:14:31.960Z,47.07
2018-05-19T10:16:59.397Z,44.90
2018-05-19T10:19:26.780Z,43.87
2018-05-19T10:21:54.199Z,49.90
2018-05-19T10:24:21.611Z,50.13
2018-05-19T10:26:49.100Z,43.43
2018-05-19T10:29:16.482Z,45.07
2018-05-19T10:31:43.868Z,50.50
2018-05-19T10:34:11.347Z,46.80
2018-05-19T10:36:38.734Z,43.53
2018-05-19T10:39:06.155Z,48.40
2018-05-19T10:41:33.598Z,45.30
2018-05-19T10:44:01.000Z,44.90
2018-05-19T10:46:28.414Z,47.57
2018-05-19T10:48:55.875Z,44.50
2018-05-19T10:51:23.324Z,45.70
2018-05-19T10:53:50.737Z,52.00
2018-05-19T10:56:18.151Z,46.40
2018-05-19T10:58:45.542Z,45.70
2018-05-19T11:01:12.935Z,46.30
2018-05-19T11:03:40.350Z,40.60
2018-05-19T11:06:07.736Z,44.37
2018-05-19T11:08:35.168Z,43.90
2018-05-19T11:11:02.551Z,40.43
2018-05-19T11:13:29.938Z,43.47
2018-05-19T11:15:57.364Z,45.33
2018-05-19T11:18:24.742Z,41.63
2018-05-19T11:20:52.150Z,47.07
2018-05-19T11:23:19.537Z,43.43
2018-05-19T11:25:47.028Z,41.20
2018-05-19T11:28:14.311Z,45.43
2018-05-19T11:30:41.710Z,44.17
2018-05-19T11:33:09.135Z,40.90
2018-05-19T11:35:37.165Z,42.03
2018-05-19T11:38:04.666Z,46.07
2018-05-19T11:40:32.062Z,41.33
2018-05-19T11:43:01.184Z,41.67
2018-05-19T11:45:28.639Z,43.37
2018-05-19T11:47:56.027Z,41.60
2018-05-19T11:50:23.418Z,45.30
2018-05-19T11:52:50.810Z,40.20
2018-05-19T11:55:18.214Z,41.13
2018-05-19T11:57:45.603Z,40.40
2018-05-19T12:00:13.003Z,38.70
2018-05-19T12:02:40.474Z,40.90
2018-05-19T12:05:07.911Z,37.80
2018-05-19T12:07:35.310Z,39.90
2018-05-19T12:10:02.697Z,40.13
2018-05-19T12:12:30.087Z,38.13
2018-05-19T12:14:57.482Z,38.70
2018-05-19T12:17:24.868Z,41.93
2018-05-19T12:19:52.255Z,40.17
2018-05-19T12:22:19.651Z,41.50
2018-05-19T12:24:47.043Z,38.30
2018-05-19T12:27:14.440Z,38.87
2018-05-19T12:29:41.823Z,36.47
2018-05-19T12:32:09.219Z,38.40
2018-05-19T12:34:36.607Z,35.80
2018-05-19T12:37:04.011Z,38.37
2018-05-19T12:39:31.547Z,38.13
2018-05-19T12:41:58.927Z,39.23
2018-05-19T12:44:26.321Z,37.10
2018-05-19T12:46:53.927Z,36.47
2018-05-19T12:49:21.318Z,36.37
2018-05-19T12:51:48.709Z,37.70
2018-05-19T12:54:16.094Z,37.20
2018-05-19T12:56:43.490Z,36.57
2018-05-19T12:59:10.886Z,36.60
2018-05-19T13:01:38.357Z,38.83
2018-05-19T13:04:05.671Z,37.27
2018-05-19T13:06:33.063Z,39.10
2018-05-19T13:09:00.458Z,37.70
2018-05-19T13:11:27.854Z,35.80
2018-05-19T13:13:55.250Z,35.23
2018-05-19T13:16:22.642Z,35.50
2018-05-19T13:18:50.035Z,33.70
2018-05-19T13:21:17.422Z,35.87
2018-05-19T13:23:44.810Z,34.70
2018-05-19T13:26:12.202Z,33.27
2018-05-19T13:28:39.595Z,34.30
2018-05-19T13:31:06.979Z,37.37
2018-05-19T13:33:34.371Z,36.60
2018-05-19T13:36:01.771Z,39.80
2018-05-19T13:38:29.158Z,44.70
2018-05-19T13:40:56.551Z,38.50
2018-05-19T13:43:23.935Z,35.07
2018-05-19T13:45:51.330Z,33.13
2018-05-19T13:48:18.715Z,33.50
2018-05-19T13:50:46.102Z,33.87
2018-05-19T13:53:13.497Z,31.93
2018-05-19T13:55:40.886Z,33.03
2018-05-19T13:58:08.288Z,31.00
2018-05-19T14:00:35.901Z,30.23
2018-05-19T14:03:03.303Z,33.20
2018-05-19T14:05:30.694Z,32.83
2018-05-19T14:07:58.083Z,35.87
2018-05-19T14:10:25.474Z,33.87
2018-05-19T14:12:52.862Z,33.70
2018-05-19T14:15:20.261Z,33.60
2018-05-19T14:17:47.655Z,36.27
2018-05-19T14:20:15.035Z,33.53
2018-05-19T14:22:42.435Z,32.73
2018-05-19T14:25:09.815Z,32.30
2018-05-19T14:27:37.226Z,31.30
2018-05-19T14:30:04.607Z,33.33
2018-05-19T14:32:32.007Z,32.90
2018-05-19T14:34:59.390Z,30.43
2018-05-19T14:37:26.775Z,35.33
2018-05-19T14:39:54.173Z,31.60
2018-05-19T14:42:21.563Z,32.63
2018-05-19T14:44:48.965Z,32.67
2018-05-19T14:47:16.352Z,31.10
2018-05-19T14:49:43.744Z,33.53
2018-05-19T14:52:11.134Z,31.90
2018-05-19T14:54:38.914Z,32.80
2018-05-19T14:57:06.306Z,35.07
2018-05-19T14:59:33.686Z,31.20
2018-05-19T15:02:01.151Z,32.13
2018-05-19T15:04:28.553Z,31.97
2018-05-19T15:06:55.934Z,33.43
2018-05-19T15:09:23.327Z,30.97
2018-05-19T15:11:50.723Z,30.30
2018-05-19T15:14:18.110Z,29.30
2018-05-19T15:16:45.503Z,31.77
2018-05-19T15:19:12.891Z,30.53
2018-05-19T15:21:40.292Z,33.40
2018-05-19T15:24:07.690Z,33.27
2018-05-19T15:26:35.074Z,32.83
2018-05-19T15:29:02.467Z,32.73
2018-05-19T15:31:29.859Z,29.93
2018-05-19T15:33:57.255Z,30.57
2018-05-19T15:36:24.675Z,30.27
2018-05-19T15:38:52.081Z,77.03
2018-05-19T15:41:19.467Z,29.00
2018-05-19T15:43:46.862Z,29.20
2018-05-19T15:46:14.253Z,31.47
2018-05-19T15:48:41.643Z,31.13
2018-05-19T15:51:09.031Z,31.70
2018-05-19T15:53:36.434Z,32.45
2018-05-19T15:56:03.911Z,31.97
2018-05-19T15:58:31.223Z,31.17
2018-05-19T16:00:58.616Z,28.70
2018-05-19T16:03:26.011Z,28.93
2018-05-19T16:05:53.401Z,28.30
2018-05-19T16:08:20.798Z,28.10
2018-05-19T16:10:48.194Z,27.93
2018-05-19T16:13:15.583Z,26.57
2018-05-19T16:15:42.978Z,28.93
2018-05-19T16:18:10.366Z,32.20
2018-05-19T16:20:37.759Z,28.20
2018-05-19T16:23:05.147Z,30.53
2018-05-19T16:25:32.534Z,35.60
2018-05-19T16:27:59.926Z,29.27
2018-05-19T16:30:27.319Z,24.73
2018-05-19T16:32:54.706Z,26.07
2018-05-19T16:35:22.096Z,26.13
2018-05-19T16:37:49.475Z,30.93
2018-05-19T16:40:16.870Z,25.80
2018-05-19T16:42:44.265Z,28.37
2018-05-19T16:45:11.663Z,28.50
2018-05-19T16:47:39.047Z,42.67
2018-05-19T16:50:06.434Z,35.47
2018-05-19T16:52:33.828Z,27.23
2018-05-19T16:55:01.237Z,26.77
2018-05-19T16:57:28.632Z,28.73
2018-05-19T16:59:56.007Z,46.97
2018-05-19T17:02:23.403Z,25.90
2018-05-19T17:04:50.786Z,26.40
2018-05-19T17:07:18.182Z,24.43
2018-05-19T17:09:45.567Z,52.77
2018-05-19T17:12:12.964Z,26.53
2018-05-19T17:14:40.355Z,30.13
2018-05-19T17:17:07.779Z,25.27
2018-05-19T17:19:35.162Z,24.00
2018-05-19T17:22:02.657Z,24.20
2018-05-19T17:24:29.944Z,22.63
2018-05-19T17:26:57.331Z,23.53
2018-05-19T17:29:24.722Z,24.13
2018-05-19T17:31:52.144Z,24.57
2018-05-19T17:34:19.522Z,24.80
2018-05-19T17:36:46.931Z,24.37
2018-05-19T17:39:14.396Z,26.57
2018-05-19T17:41:41.717Z,27.10
2018-05-19T17:44:09.111Z,24.77
2018-05-19T17:46:36.494Z,24.83
2018-05-19T17:49:03.891Z,23.97
2018-05-19T17:51:31.275Z,22.17
2018-05-19T17:53:58.670Z,25.03
2018-05-19T17:56:26.063Z,27.53
2018-05-19T17:58:54.112Z,23.30
2018-05-19T18:01:21.491Z,23.83
2018-05-19T18:03:48.883Z,23.23
2018-05-19T18:06:16.270Z,24.57
2018-05-19T18:08:43.659Z,24.13
2018-05-19T18:11:11.055Z,23.17
2018-05-19T18:13:38.455Z,23.20
2018-05-19T18:16:05.841Z,26.40
2018-05-19T18:18:33.239Z,20.90
2018-05-19T18:21:00.644Z,26.57
2018-05-19T18:23:28.501Z,23.10
2018-05-19T18:25:56.269Z,23.90
2018-05-19T18:28:23.793Z,24.60
2018-05-19T18:30:51.169Z,25.50
2018-05-19T18:33:18.574Z,24.70
2018-05-19T18:35:46.074Z,24.70
2018-05-19T18:38:13.355Z,24.03
2018-05-19T18:40:40.832Z,23.97
2018-05-19T18:43:08.282Z,25.67
2018-05-19T18:45:35.714Z,23.13
2018-05-19T18:48:03.174Z,24.33
2018-05-19T18:50:30.595Z,27.50
2018-05-19T18:53:01.140Z,23.57
2018-05-19T18:55:28.598Z,23.37
2018-05-19T18:57:56.088Z,24.73
2018-05-19T19:00:23.479Z,23.90
2018-05-19T19:02:50.891Z,25.27
2018-05-19T19:05:18.385Z,25.20
2018-05-19T19:07:45.778Z,26.17
2018-05-19T19:10:13.178Z,23.60
2018-05-19T19:12:40.576Z,28.47
2018-05-19T19:15:08.162Z,24.43
2018-05-19T19:17:35.658Z,26.13
2018-05-19T19:20:03.117Z,27.40
2018-05-19T19:22:30.675Z,25.77
2018-05-19T19:24:58.111Z,25.43
2018-05-19T19:27:25.514Z,26.93
2018-05-19T19:29:52.890Z,25.00
2018-05-19T19:32:20.307Z,28.43
2018-05-19T19:34:47.774Z,25.03
2018-05-19T19:37:15.206Z,26.47
2018-05-19T19:39:42.606Z,25.00
2018-05-19T19:42:10.199Z,25.20
2018-05-19T19:44:37.583Z,26.40
2018-05-19T19:47:04.970Z,26.27
2018-05-19T19:49:32.364Z,26.67
2018-05-19T19:51:59.755Z,26.53
2018-05-19T19:54:27.179Z,26.10
2018-05-19T19:56:54.571Z,25.60
2018-05-19T19:59:21.988Z,24.90
2018-05-19T20:01:49.358Z,26.57
2018-05-19T20:04:16.743Z,25.63
2018-05-19T20:06:44.131Z,25.47
2018-05-19T20:09:11.523Z,27.83
2018-05-19T20:11:38.927Z,27.43
2018-05-19T20:14:06.347Z,28.83
2018-05-19T20:16:33.715Z,27.90
2018-05-19T20:19:01.238Z,27.20
2018-05-19T20:21:28.627Z,36.13
2018-05-19T20:23:56.027Z,27.87
2018-05-19T20:26:23.538Z,28.53
2018-05-19T20:28:50.923Z,30.17
2018-05-19T20:31:18.332Z,29.53
2018-05-19T20:33:45.754Z,27.70
2018-05-19T20:36:13.150Z,31.00
2018-05-19T20:38:40.540Z,29.33
2018-05-19T20:41:07.968Z,34.37
2018-05-19T20:43:35.398Z,33.03
2018-05-19T20:46:02.771Z,32.33
2018-05-19T20:48:30.184Z,31.13
2018-05-19T20:50:57.562Z,31.13
2018-05-19T20:53:24.946Z,30.13
2018-05-19T20:55:52.351Z,32.90
2018-05-19T20:58:19.735Z,33.83
2018-05-19T21:00:47.302Z,32.03
2018-05-19T21:03:14.683Z,30.93
2018-05-19T21:05:42.067Z,30.57
2018-05-19T21:08:09.468Z,30.60
2018-05-19T21:10:36.857Z,32.03
2018-05-19T21:13:04.250Z,35.80
2018-05-19T21:15:31.637Z,31.93
2018-05-19T21:17:59.030Z,31.57
2018-05-19T21:20:26.423Z,32.63
2018-05-19T21:22:53.822Z,34.67
2018-05-19T21:25:21.212Z,33.77
2018-05-19T21:27:48.709Z,31.60
2018-05-19T21:30:16.042Z,32.27
2018-05-19T21:32:43.434Z,38.43
2018-05-19T21:35:10.822Z,32.00
2018-05-19T21:37:38.211Z,31.33
2018-05-19T21:40:05.603Z,32.23
2018-05-19T21:42:33.042Z,33.57
2018-05-19T21:45:00.448Z,32.37
2018-05-19T21:47:27.958Z,33.90
2018-05-19T21:49:55.421Z,32.53
2018-05-19T21:52:22.751Z,36.60
2018-05-19T21:54:50.139Z,34.40
2018-05-19T21:57:17.532Z,32.63
2018-05-19T21:59:44.963Z,34.43
2018-05-19T22:02:12.498Z,34.43
2018-05-19T22:04:39.882Z,36.17
2018-05-19T22:07:07.274Z,33.33
2018-05-19T22:09:34.659Z,32.27
2018-05-19T22:12:02.051Z,32.00
2018-05-19T22:14:29.439Z,37.30
2018-05-19T22:16:56.830Z,31.37
2018-05-19T22:19:24.235Z,33.40
2018-05-19T22:21:51.619Z,33.53
2018-05-19T22:24:19.020Z,31.93
2018-05-19T22:26:46.404Z,34.03
2018-05-19T22:29:13.798Z,33.13
2018-05-19T22:31:41.198Z,31.63
2018-05-19T22:34:08.583Z,35.40
2018-05-19T22:36:35.983Z,33.83
2018-05-19T22:39:03.370Z,32.20
2018-05-19T22:41:30.751Z,33.90
2018-05-19T22:43:58.247Z,34.47
2018-05-19T22:46:25.635Z,35.07
2018-05-19T22:48:53.015Z,37.83
2018-05-19T22:51:20.410Z,31.20
2018-05-19T22:53:47.795Z,30.60
2018-05-19T22:56:15.258Z,31.63
2018-05-19T22:58:42.646Z,33.97
2018-05-19T23:01:10.039Z,31.93
2018-05-19T23:03:37.423Z,30.87
2018-05-19T23:06:04.823Z,30.53
2018-05-19T23:08:32.202Z,31.20
2018-05-19T23:10:59.590Z,32.37
2018-05-19T23:13:26.978Z,33.03
2018-05-19T23:15:54.383Z,29.73
2018-05-19T23:18:21.783Z,30.73
2018-05-19T23:20:49.169Z,31.83
2018-05-19T23:23:16.554Z,30.77
2018-05-19T23:25:43.942Z,31.20
2018-05-19T23:28:11.339Z,31.57
2018-05-19T23:30:38.739Z,31.87
2018-05-19T23:33:06.123Z,29.63
2018-05-19T23:35:33.515Z,33.13
2018-05-19T23:38:00.899Z,30.00
2018-05-19T23:40:28.300Z,32.00
2018-05-19T23:42:55.691Z,32.40
2018-05-19T23:45:23.903Z,32.40
2018-05-19T23:47:51.301Z,30.23
2018-05-19T23:50:18.687Z,30.40
2018-05-19T23:52:46.087Z,35.47
2018-05-19T23:55:13.482Z,31.23
2018-05-19T23:57:40.875Z,29.77
